Accueil
METAR-TAF:

METAR-TAF

Aéroports :

Diego Garcia, Territoire britannique de l'océan Indien

latitude: 07-18S, longitude: 072-24E, altitude: 1 m

Observation

Le bulletin a été fait il y a 1 heure et 20 minutes, à 01:55 UTC
Vent 9 kt de sud/sud-est
Température 27°C
Humidité 89%
Pression 1010 hPa
Visibilité 10 km ou plus
Quelques nuages à une hauteur de 2000 ft
Quelques nuages à une hauteur de 4000 ft
Nuages épars à une hauteur de 8000 ft

METAR: FJDG 220155Z 16009KT 9999 FEW020 FEW040 SCT080 27/25 A2982 RMK SLP095 T02710250

Heure: 09:15 (03:15 UTC)

Prévision

Le bulletin a été fait il y a 2 heures et 15 minutes, à 01:00 UTC
Prévision valable du 22 à 01 UTC au 23 à 07 UTC
Vent 15 kt de sud
Visibilité 10 km ou plus
Quelques nuages à une hauteur de 2000 ft
Nuages épars à une hauteur de 4000 ft

TAF: FJDG 220100Z 2201/2307 17015KT 9999 FEW020 SCT040 QNH2977INS TX33/2209Z TN26/2201Z

Observations et prévisions météorologiques de plus de 4000 aéroports (messages METAR et TAF).

Les stations disponibles sont représentées par des disques jaunes et rouges sur la carte.

Passer la souris dessus pour voir le nom de la station.

Cliquer dessus pour voir les observations et prévisions météorologiques.

Pour changer de carte: cliquez sur les boutons verts avec une croix noire pour zoomer, sur le bouton vert avec un tiret pour effectuer un zoom arrière, ou sur les flèches vertes pour les cartes adjacentes.


METAR-TAF: